sensor_id;sensor_type;location;lat;lon;timestamp;P1;durP1;ratioP1;P2;durP2;ratioP2
13345;SDS011;6742;48.036;15.780;2024-02-28T00:02:02;3.45;;;1.80;;
13345;SDS011;6742;48.036;15.780;2024-02-28T00:04:29;3.53;;;2.00;;
13345;SDS011;6742;48.036;15.780;2024-02-28T00:06:56;2.10;;;1.80;;
13345;SDS011;6742;48.036;15.780;2024-02-28T00:09:23;3.65;;;1.83;;
13345;SDS011;6742;48.036;15.780;2024-02-28T00:11:50;3.40;;;1.70;;
13345;SDS011;6742;48.036;15.780;2024-02-28T00:14:17;2.58;;;1.92;;
13345;SDS011;6742;48.036;15.780;2024-02-28T00:16:46;2.72;;;1.70;;
13345;SDS011;6742;48.036;15.780;2024-02-28T00:19:13;2.85;;;2.00;;
13345;SDS011;6742;48.036;15.780;2024-02-28T00:21:42;6.57;;;2.75;;
13345;SDS011;6742;48.036;15.780;2024-02-28T00:24:09;4.63;;;2.30;;
13345;SDS011;6742;48.036;15.780;2024-02-28T00:26:39;3.53;;;1.98;;
13345;SDS011;6742;48.036;15.780;2024-02-28T00:29:07;3.85;;;2.70;;
13345;SDS011;6742;48.036;15.780;2024-02-28T00:31:34;4.50;;;2.63;;
13345;SDS011;6742;48.036;15.780;2024-02-28T00:34:03;3.70;;;2.22;;
13345;SDS011;6742;48.036;15.780;2024-02-28T00:36:31;5.32;;;2.22;;
13345;SDS011;6742;48.036;15.780;2024-02-28T00:38:58;4.13;;;2.20;;
13345;SDS011;6742;48.036;15.780;2024-02-28T00:41:25;4.60;;;2.10;;
13345;SDS011;6742;48.036;15.780;2024-02-28T00:43:52;3.90;;;2.20;;
13345;SDS011;6742;48.036;15.780;2024-02-28T00:46:19;4.15;;;1.85;;
13345;SDS011;6742;48.036;15.780;2024-02-28T00:48:46;2.22;;;1.52;;
13345;SDS011;6742;48.036;15.780;2024-02-28T00:51:14;2.90;;;1.75;;
13345;SDS011;6742;48.036;15.780;2024-02-28T00:53:41;8.82;;;4.47;;
13345;SDS011;6742;48.036;15.780;2024-02-28T00:56:08;6.10;;;2.72;;
13345;SDS011;6742;48.036;15.780;2024-02-28T00:58:35;4.75;;;2.53;;
13345;SDS011;6742;48.036;15.780;2024-02-28T01:01:03;4.70;;;2.83;;
13345;SDS011;6742;48.036;15.780;2024-02-28T01:03:32;3.10;;;2.13;;
13345;SDS011;6742;48.036;15.780;2024-02-28T01:05:59;4.90;;;3.13;;
13345;SDS011;6742;48.036;15.780;2024-02-28T01:08:30;6.50;;;2.97;;
13345;SDS011;6742;48.036;15.780;2024-02-28T01:10:57;4.50;;;2.20;;
13345;SDS011;6742;48.036;15.780;2024-02-28T01:13:25;3.00;;;1.77;;
13345;SDS011;6742;48.036;15.780;2024-02-28T01:15:51;3.08;;;1.80;;
13345;SDS011;6742;48.036;15.780;2024-02-28T01:18:19;3.38;;;1.70;;
13345;SDS011;6742;48.036;15.780;2024-02-28T01:20:46;5.35;;;2.30;;
13345;SDS011;6742;48.036;15.780;2024-02-28T01:23:13;3.70;;;2.47;;
13345;SDS011;6742;48.036;15.780;2024-02-28T01:25:41;3.72;;;2.40;;
13345;SDS011;6742;48.036;15.780;2024-02-28T01:28:08;4.03;;;2.80;;
13345;SDS011;6742;48.036;15.780;2024-02-28T01:30:35;3.08;;;2.33;;
13345;SDS011;6742;48.036;15.780;2024-02-28T01:33:02;4.05;;;2.70;;
13345;SDS011;6742;48.036;15.780;2024-02-28T01:35:29;5.10;;;3.53;;
13345;SDS011;6742;48.036;15.780;2024-02-28T01:37:56;5.15;;;4.25;;
13345;SDS011;6742;48.036;15.780;2024-02-28T01:40:23;8.20;;;4.70;;
13345;SDS011;6742;48.036;15.780;2024-02-28T01:42:52;6.30;;;4.95;;
13345;SDS011;6742;48.036;15.780;2024-02-28T01:45:19;6.57;;;5.82;;
13345;SDS011;6742;48.036;15.780;2024-02-28T01:47:46;6.57;;;5.75;;
13345;SDS011;6742;48.036;15.780;2024-02-28T01:50:13;10.20;;;6.53;;
13345;SDS011;6742;48.036;15.780;2024-02-28T01:52:40;7.43;;;5.95;;
13345;SDS011;6742;48.036;15.780;2024-02-28T01:55:08;7.43;;;6.20;;
13345;SDS011;6742;48.036;15.780;2024-02-28T01:57:35;8.55;;;7.03;;
13345;SDS011;6742;48.036;15.780;2024-02-28T02:00:05;8.27;;;6.80;;
13345;SDS011;6742;48.036;15.780;2024-02-28T02:02:34;10.05;;;6.70;;
13345;SDS011;6742;48.036;15.780;2024-02-28T02:05:01;8.60;;;7.15;;
13345;SDS011;6742;48.036;15.780;2024-02-28T02:07:29;9.50;;;6.65;;
13345;SDS011;6742;48.036;15.780;2024-02-28T02:09:56;10.32;;;7.85;;
13345;SDS011;6742;48.036;15.780;2024-02-28T02:12:23;8.90;;;7.43;;
13345;SDS011;6742;48.036;15.780;2024-02-28T02:14:50;10.90;;;8.13;;
13345;SDS011;6742;48.036;15.780;2024-02-28T02:17:18;11.98;;;7.72;;
13345;SDS011;6742;48.036;15.780;2024-02-28T02:19:45;10.37;;;8.90;;
13345;SDS011;6742;48.036;15.780;2024-02-28T02:22:13;9.57;;;8.30;;
13345;SDS011;6742;48.036;15.780;2024-02-28T02:24:42;10.95;;;9.02;;
13345;SDS011;6742;48.036;15.780;2024-02-28T02:27:09;10.13;;;9.07;;
13345;SDS011;6742;48.036;15.780;2024-02-28T02:29:35;11.00;;;9.13;;
13345;SDS011;6742;48.036;15.780;2024-02-28T02:32:03;11.03;;;9.63;;
13345;SDS011;6742;48.036;15.780;2024-02-28T02:34:30;11.87;;;9.80;;
13345;SDS011;6742;48.036;15.780;2024-02-28T02:36:57;10.40;;;9.25;;
13345;SDS011;6742;48.036;15.780;2024-02-28T02:39:24;12.18;;;10.00;;
13345;SDS011;6742;48.036;15.780;2024-02-28T02:41:52;11.68;;;10.02;;
13345;SDS011;6742;48.036;15.780;2024-02-28T02:44:19;11.97;;;9.87;;
13345;SDS011;6742;48.036;15.780;2024-02-28T02:46:46;11.57;;;9.60;;
13345;SDS011;6742;48.036;15.780;2024-02-28T02:49:13;11.73;;;10.02;;
13345;SDS011;6742;48.036;15.780;2024-02-28T02:51:40;12.63;;;10.00;;
13345;SDS011;6742;48.036;15.780;2024-02-28T02:54:08;12.70;;;10.50;;
13345;SDS011;6742;48.036;15.780;2024-02-28T02:56:35;13.30;;;10.73;;
13345;SDS011;6742;48.036;15.780;2024-02-28T02:59:04;12.40;;;10.77;;
13345;SDS011;6742;48.036;15.780;2024-02-28T03:01:31;13.90;;;11.07;;
13345;SDS011;6742;48.036;15.780;2024-02-28T03:03:58;14.23;;;10.47;;
13345;SDS011;6742;48.036;15.780;2024-02-28T03:06:25;13.93;;;11.55;;
13345;SDS011;6742;48.036;15.780;2024-02-28T03:08:52;15.43;;;12.10;;
13345;SDS011;6742;48.036;15.780;2024-02-28T03:11:19;14.27;;;11.67;;
13345;SDS011;6742;48.036;15.780;2024-02-28T03:13:46;15.83;;;12.30;;
13345;SDS011;6742;48.036;15.780;2024-02-28T03:16:15;13.63;;;11.97;;
13345;SDS011;6742;48.036;15.780;2024-02-28T03:18:42;12.93;;;11.52;;
13345;SDS011;6742;48.036;15.780;2024-02-28T03:21:09;14.90;;;11.63;;
13345;SDS011;6742;48.036;15.780;2024-02-28T03:23:36;13.07;;;11.37;;
13345;SDS011;6742;48.036;15.780;2024-02-28T03:26:03;13.53;;;11.30;;
13345;SDS011;6742;48.036;15.780;2024-02-28T03:28:30;15.63;;;10.98;;
13345;SDS011;6742;48.036;15.780;2024-02-28T03:30:58;13.00;;;10.77;;
13345;SDS011;6742;48.036;15.780;2024-02-28T03:33:26;12.90;;;10.93;;
13345;SDS011;6742;48.036;15.780;2024-02-28T03:35:56;14.27;;;10.80;;
13345;SDS011;6742;48.036;15.780;2024-02-28T03:38:23;13.55;;;10.93;;
13345;SDS011;6742;48.036;15.780;2024-02-28T03:40:50;13.67;;;11.00;;
13345;SDS011;6742;48.036;15.780;2024-02-28T03:43:17;13.00;;;10.90;;
13345;SDS011;6742;48.036;15.780;2024-02-28T03:45:44;13.40;;;10.83;;
13345;SDS011;6742;48.036;15.780;2024-02-28T03:48:11;13.73;;;10.90;;
13345;SDS011;6742;48.036;15.780;2024-02-28T03:50:39;12.83;;;11.10;;
13345;SDS011;6742;48.036;15.780;2024-02-28T03:53:06;13.03;;;11.20;;
13345;SDS011;6742;48.036;15.780;2024-02-28T03:55:33;14.20;;;11.57;;
13345;SDS011;6742;48.036;15.780;2024-02-28T03:58:00;12.77;;;11.10;;
13345;SDS011;6742;48.036;15.780;2024-02-28T04:00:27;15.10;;;11.40;;
13345;SDS011;6742;48.036;15.780;2024-02-28T04:02:54;12.40;;;11.00;;
13345;SDS011;6742;48.036;15.780;2024-02-28T04:05:21;13.00;;;11.40;;
13345;SDS011;6742;48.036;15.780;2024-02-28T04:07:50;13.50;;;11.93;;
13345;SDS011;6742;48.036;15.780;2024-02-28T04:10:17;14.02;;;11.50;;
13345;SDS011;6742;48.036;15.780;2024-02-28T04:12:43;13.47;;;11.87;;
13345;SDS011;6742;48.036;15.780;2024-02-28T04:15:11;14.40;;;11.27;;
13345;SDS011;6742;48.036;15.780;2024-02-28T04:17:38;13.50;;;10.93;;
13345;SDS011;6742;48.036;15.780;2024-02-28T04:20:07;14.57;;;11.23;;
13345;SDS011;6742;48.036;15.780;2024-02-28T04:22:35;14.30;;;11.90;;
13345;SDS011;6742;48.036;15.780;2024-02-28T04:25:04;16.40;;;12.95;;
13345;SDS011;6742;48.036;15.780;2024-02-28T04:27:32;16.33;;;12.57;;
13345;SDS011;6742;48.036;15.780;2024-02-28T04:29:59;15.97;;;12.07;;
13345;SDS011;6742;48.036;15.780;2024-02-28T04:32:26;14.70;;;11.90;;
13345;SDS011;6742;48.036;15.780;2024-02-28T04:34:53;14.67;;;11.70;;
13345;SDS011;6742;48.036;15.780;2024-02-28T04:37:20;14.13;;;12.10;;
13345;SDS011;6742;48.036;15.780;2024-02-28T04:39:47;14.90;;;12.30;;
13345;SDS011;6742;48.036;15.780;2024-02-28T04:42:15;13.80;;;11.80;;
13345;SDS011;6742;48.036;15.780;2024-02-28T04:44:42;13.23;;;11.43;;
13345;SDS011;6742;48.036;15.780;2024-02-28T04:47:09;14.07;;;11.17;;
13345;SDS011;6742;48.036;15.780;2024-02-28T04:49:36;14.50;;;11.20;;
13345;SDS011;6742;48.036;15.780;2024-02-28T04:52:04;13.30;;;10.90;;
13345;SDS011;6742;48.036;15.780;2024-02-28T04:54:32;13.87;;;11.13;;
13345;SDS011;6742;48.036;15.780;2024-02-28T04:56:59;12.63;;;11.33;;
13345;SDS011;6742;48.036;15.780;2024-02-28T04:59:29;13.67;;;11.27;;
13345;SDS011;6742;48.036;15.780;2024-02-28T05:01:57;13.13;;;11.67;;
13345;SDS011;6742;48.036;15.780;2024-02-28T05:04:24;14.17;;;11.50;;
13345;SDS011;6742;48.036;15.780;2024-02-28T05:06:52;13.20;;;11.40;;
13345;SDS011;6742;48.036;15.780;2024-02-28T05:09:20;14.27;;;10.83;;
13345;SDS011;6742;48.036;15.780;2024-02-28T05:11:46;11.93;;;10.63;;
13345;SDS011;6742;48.036;15.780;2024-02-28T05:14:13;13.60;;;11.17;;
13345;SDS011;6742;48.036;15.780;2024-02-28T05:16:42;12.90;;;10.33;;
13345;SDS011;6742;48.036;15.780;2024-02-28T05:19:09;12.90;;;10.87;;
13345;SDS011;6742;48.036;15.780;2024-02-28T05:21:45;13.60;;;11.47;;
13345;SDS011;6742;48.036;15.780;2024-02-28T05:24:13;13.90;;;11.03;;
13345;SDS011;6742;48.036;15.780;2024-02-28T05:26:40;12.83;;;10.63;;
13345;SDS011;6742;48.036;15.780;2024-02-28T05:29:07;12.63;;;10.57;;
13345;SDS011;6742;48.036;15.780;2024-02-28T05:31:34;20.27;;;15.30;;
13345;SDS011;6742;48.036;15.780;2024-02-28T05:34:03;18.63;;;13.13;;
13345;SDS011;6742;48.036;15.780;2024-02-28T05:36:30;16.70;;;13.67;;
13345;SDS011;6742;48.036;15.780;2024-02-28T05:38:57;14.73;;;12.83;;
13345;SDS011;6742;48.036;15.780;2024-02-28T05:41:26;15.67;;;12.73;;
13345;SDS011;6742;48.036;15.780;2024-02-28T05:43:53;16.07;;;12.60;;
13345;SDS011;6742;48.036;15.780;2024-02-28T05:46:21;15.10;;;12.00;;
13345;SDS011;6742;48.036;15.780;2024-02-28T05:48:48;14.93;;;12.37;;
13345;SDS011;6742;48.036;15.780;2024-02-28T05:51:17;16.07;;;12.33;;
13345;SDS011;6742;48.036;15.780;2024-02-28T05:53:44;13.10;;;11.07;;
13345;SDS011;6742;48.036;15.780;2024-02-28T05:56:11;14.07;;;11.67;;
13345;SDS011;6742;48.036;15.780;2024-02-28T05:58:39;15.47;;;11.83;;
13345;SDS011;6742;48.036;15.780;2024-02-28T06:01:08;13.53;;;11.40;;
13345;SDS011;6742;48.036;15.780;2024-02-28T06:03:35;14.57;;;11.03;;
13345;SDS011;6742;48.036;15.780;2024-02-28T06:06:02;13.30;;;10.57;;
13345;SDS011;6742;48.036;15.780;2024-02-28T06:08:32;15.03;;;12.00;;
13345;SDS011;6742;48.036;15.780;2024-02-28T06:11:00;15.63;;;12.73;;
13345;SDS011;6742;48.036;15.780;2024-02-28T06:13:27;14.17;;;11.87;;
13345;SDS011;6742;48.036;15.780;2024-02-28T06:15:54;16.07;;;13.00;;
13345;SDS011;6742;48.036;15.780;2024-02-28T06:18:21;14.03;;;11.63;;
13345;SDS011;6742;48.036;15.780;2024-02-28T06:20:51;13.63;;;11.60;;
13345;SDS011;6742;48.036;15.780;2024-02-28T06:23:18;19.27;;;12.37;;
13345;SDS011;6742;48.036;15.780;2024-02-28T06:25:47;15.30;;;12.00;;
13345;SDS011;6742;48.036;15.780;2024-02-28T06:28:14;19.63;;;11.63;;
13345;SDS011;6742;48.036;15.780;2024-02-28T06:30:42;15.40;;;12.00;;
13345;SDS011;6742;48.036;15.780;2024-02-28T06:33:09;16.90;;;12.23;;
13345;SDS011;6742;48.036;15.780;2024-02-28T06:35:36;15.87;;;12.27;;
13345;SDS011;6742;48.036;15.780;2024-02-28T06:38:03;21.83;;;12.63;;
13345;SDS011;6742;48.036;15.780;2024-02-28T06:40:30;15.67;;;11.73;;
13345;SDS011;6742;48.036;15.780;2024-02-28T06:42:59;15.30;;;12.17;;
13345;SDS011;6742;48.036;15.780;2024-02-28T06:45:26;20.20;;;12.07;;
13345;SDS011;6742;48.036;15.780;2024-02-28T06:47:53;17.67;;;12.60;;
13345;SDS011;6742;48.036;15.780;2024-02-28T06:50:20;18.30;;;12.73;;
13345;SDS011;6742;48.036;15.780;2024-02-28T06:52:47;16.07;;;13.07;;
13345;SDS011;6742;48.036;15.780;2024-02-28T06:55:14;17.57;;;13.10;;
13345;SDS011;6742;48.036;15.780;2024-02-28T06:57:41;14.00;;;12.13;;
13345;SDS011;6742;48.036;15.780;2024-02-28T07:00:10;15.30;;;12.53;;
13345;SDS011;6742;48.036;15.780;2024-02-28T07:02:39;17.30;;;12.93;;
13345;SDS011;6742;48.036;15.780;2024-02-28T07:05:07;13.43;;;11.33;;
13345;SDS011;6742;48.036;15.780;2024-02-28T07:07:34;15.43;;;11.13;;
13345;SDS011;6742;48.036;15.780;2024-02-28T07:10:02;14.97;;;11.90;;
13345;SDS011;6742;48.036;15.780;2024-02-28T07:12:29;14.67;;;11.23;;
13345;SDS011;6742;48.036;15.780;2024-02-28T07:14:56;14.60;;;11.40;;
13345;SDS011;6742;48.036;15.780;2024-02-28T07:17:24;16.27;;;11.67;;
13345;SDS011;6742;48.036;15.780;2024-02-28T07:19:51;15.23;;;12.00;;
13345;SDS011;6742;48.036;15.780;2024-02-28T07:22:18;17.60;;;11.53;;
13345;SDS011;6742;48.036;15.780;2024-02-28T07:24:46;16.10;;;11.77;;
13345;SDS011;6742;48.036;15.780;2024-02-28T07:27:13;16.03;;;12.43;;
13345;SDS011;6742;48.036;15.780;2024-02-28T07:29:40;15.90;;;12.20;;
13345;SDS011;6742;48.036;15.780;2024-02-28T07:32:07;14.67;;;12.03;;
13345;SDS011;6742;48.036;15.780;2024-02-28T07:34:36;18.53;;;12.53;;
13345;SDS011;6742;48.036;15.780;2024-02-28T07:37:03;17.80;;;12.20;;
13345;SDS011;6742;48.036;15.780;2024-02-28T07:39:30;15.70;;;13.53;;
13345;SDS011;6742;48.036;15.780;2024-02-28T07:41:57;20.23;;;13.73;;
13345;SDS011;6742;48.036;15.780;2024-02-28T07:44:25;16.93;;;13.70;;
13345;SDS011;6742;48.036;15.780;2024-02-28T07:46:55;16.10;;;13.90;;
13345;SDS011;6742;48.036;15.780;2024-02-28T07:49:22;17.67;;;13.67;;
13345;SDS011;6742;48.036;15.780;2024-02-28T07:51:51;18.30;;;13.07;;
13345;SDS011;6742;48.036;15.780;2024-02-28T07:54:18;20.60;;;14.53;;
13345;SDS011;6742;48.036;15.780;2024-02-28T07:56:45;19.57;;;14.67;;
13345;SDS011;6742;48.036;15.780;2024-02-28T07:59:12;19.63;;;15.70;;
13345;SDS011;6742;48.036;15.780;2024-02-28T08:01:38;22.33;;;16.98;;
13345;SDS011;6742;48.036;15.780;2024-02-28T08:04:05;25.85;;;15.65;;
13345;SDS011;6742;48.036;15.780;2024-02-28T08:06:32;18.65;;;14.63;;
13345;SDS011;6742;48.036;15.780;2024-02-28T08:09:01;19.73;;;16.02;;
13345;SDS011;6742;48.036;15.780;2024-02-28T08:11:29;19.33;;;15.25;;
13345;SDS011;6742;48.036;15.780;2024-02-28T08:13:56;21.13;;;16.43;;
13345;SDS011;6742;48.036;15.780;2024-02-28T08:16:23;19.42;;;15.68;;
13345;SDS011;6742;48.036;15.780;2024-02-28T08:18:50;20.02;;;15.75;;
13345;SDS011;6742;48.036;15.780;2024-02-28T08:21:17;20.93;;;15.57;;
13345;SDS011;6742;48.036;15.780;2024-02-28T08:23:45;22.77;;;15.47;;
13345;SDS011;6742;48.036;15.780;2024-02-28T08:26:14;21.20;;;16.35;;
13345;SDS011;6742;48.036;15.780;2024-02-28T08:28:41;20.27;;;15.30;;
13345;SDS011;6742;48.036;15.780;2024-02-28T08:31:07;20.63;;;16.67;;
13345;SDS011;6742;48.036;15.780;2024-02-28T08:33:34;18.30;;;15.17;;
13345;SDS011;6742;48.036;15.780;2024-02-28T08:36:02;20.33;;;15.47;;
13345;SDS011;6742;48.036;15.780;2024-02-28T08:38:29;23.55;;;16.38;;
13345;SDS011;6742;48.036;15.780;2024-02-28T08:40:56;19.50;;;15.27;;
13345;SDS011;6742;48.036;15.780;2024-02-28T08:43:24;20.85;;;15.35;;
13345;SDS011;6742;48.036;15.780;2024-02-28T08:45:51;19.38;;;15.50;;
13345;SDS011;6742;48.036;15.780;2024-02-28T08:48:20;20.90;;;15.10;;
13345;SDS011;6742;48.036;15.780;2024-02-28T08:50:47;20.13;;;15.75;;
13345;SDS011;6742;48.036;15.780;2024-02-28T08:53:14;19.17;;;14.90;;
13345;SDS011;6742;48.036;15.780;2024-02-28T08:55:41;20.45;;;14.73;;
13345;SDS011;6742;48.036;15.780;2024-02-28T08:58:08;19.17;;;14.55;;
13345;SDS011;6742;48.036;15.780;2024-02-28T09:00:37;17.80;;;14.45;;
13345;SDS011;6742;48.036;15.780;2024-02-28T09:03:04;18.85;;;14.48;;
13345;SDS011;6742;48.036;15.780;2024-02-28T09:05:31;18.27;;;15.77;;
13345;SDS011;6742;48.036;15.780;2024-02-28T09:07:58;18.45;;;14.57;;
13345;SDS011;6742;48.036;15.780;2024-02-28T09:10:26;18.63;;;15.52;;
13345;SDS011;6742;48.036;15.780;2024-02-28T09:12:54;20.83;;;15.40;;
13345;SDS011;6742;48.036;15.780;2024-02-28T09:15:20;19.52;;;16.40;;
13345;SDS011;6742;48.036;15.780;2024-02-28T09:17:49;20.42;;;14.80;;
13345;SDS011;6742;48.036;15.780;2024-02-28T09:20:16;18.63;;;15.10;;
13345;SDS011;6742;48.036;15.780;2024-02-28T09:22:43;18.40;;;14.77;;
13345;SDS011;6742;48.036;15.780;2024-02-28T09:25:10;19.45;;;14.82;;
13345;SDS011;6742;48.036;15.780;2024-02-28T09:27:37;19.40;;;15.38;;
13345;SDS011;6742;48.036;15.780;2024-02-28T09:30:04;21.23;;;15.75;;
13345;SDS011;6742;48.036;15.780;2024-02-28T09:32:32;18.17;;;14.60;;
13345;SDS011;6742;48.036;15.780;2024-02-28T09:35:00;18.83;;;14.85;;
13345;SDS011;6742;48.036;15.780;2024-02-28T09:37:29;18.92;;;15.25;;
13345;SDS011;6742;48.036;15.780;2024-02-28T09:39:56;18.35;;;15.55;;
13345;SDS011;6742;48.036;15.780;2024-02-28T09:42:23;19.83;;;15.50;;
13345;SDS011;6742;48.036;15.780;2024-02-28T09:44:50;20.15;;;15.70;;
13345;SDS011;6742;48.036;15.780;2024-02-28T09:47:17;18.67;;;15.20;;
13345;SDS011;6742;48.036;15.780;2024-02-28T09:49:45;17.70;;;14.90;;
13345;SDS011;6742;48.036;15.780;2024-02-28T09:52:18;18.33;;;15.55;;
13345;SDS011;6742;48.036;15.780;2024-02-28T09:54:45;19.67;;;15.63;;
13345;SDS011;6742;48.036;15.780;2024-02-28T09:57:11;20.45;;;16.30;;
13345;SDS011;6742;48.036;15.780;2024-02-28T09:59:39;18.92;;;14.98;;
13345;SDS011;6742;48.036;15.780;2024-02-28T10:02:07;18.55;;;15.07;;
13345;SDS011;6742;48.036;15.780;2024-02-28T10:04:37;17.30;;;14.63;;
13345;SDS011;6742;48.036;15.780;2024-02-28T10:07:11;20.30;;;16.45;;
13345;SDS011;6742;48.036;15.780;2024-02-28T10:09:40;19.60;;;15.50;;
13345;SDS011;6742;48.036;15.780;2024-02-28T10:12:08;18.83;;;15.07;;
13345;SDS011;6742;48.036;15.780;2024-02-28T10:14:35;19.75;;;15.52;;
13345;SDS011;6742;48.036;15.780;2024-02-28T10:17:03;18.40;;;15.52;;
13345;SDS011;6742;48.036;15.780;2024-02-28T10:19:31;16.65;;;14.70;;
13345;SDS011;6742;48.036;15.780;2024-02-28T10:21:57;16.67;;;14.45;;
13345;SDS011;6742;48.036;15.780;2024-02-28T10:24:25;17.17;;;15.10;;
13345;SDS011;6742;48.036;15.780;2024-02-28T10:26:54;16.83;;;14.45;;
13345;SDS011;6742;48.036;15.780;2024-02-28T10:29:21;16.50;;;13.70;;
13345;SDS011;6742;48.036;15.780;2024-02-28T10:31:49;17.00;;;14.50;;
13345;SDS011;6742;48.036;15.780;2024-02-28T10:34:17;15.82;;;13.35;;
13345;SDS011;6742;48.036;15.780;2024-02-28T10:36:43;16.30;;;13.82;;
13345;SDS011;6742;48.036;15.780;2024-02-28T10:39:11;14.73;;;12.70;;
13345;SDS011;6742;48.036;15.780;2024-02-28T10:41:38;16.45;;;13.93;;
13345;SDS011;6742;48.036;15.780;2024-02-28T10:44:07;15.70;;;13.07;;
13345;SDS011;6742;48.036;15.780;2024-02-28T10:46:35;14.90;;;12.85;;
13345;SDS011;6742;48.036;15.780;2024-02-28T10:49:04;14.82;;;12.75;;
13345;SDS011;6742;48.036;15.780;2024-02-28T10:51:32;14.48;;;12.82;;
13345;SDS011;6742;48.036;15.780;2024-02-28T10:54:04;16.13;;;13.95;;
13345;SDS011;6742;48.036;15.780;2024-02-28T10:56:36;17.05;;;13.30;;
13345;SDS011;6742;48.036;15.780;2024-02-28T10:59:06;15.25;;;13.15;;
13345;SDS011;6742;48.036;15.780;2024-02-28T11:01:34;17.08;;;13.40;;
13345;SDS011;6742;48.036;15.780;2024-02-28T11:04:02;16.67;;;13.48;;
13345;SDS011;6742;48.036;15.780;2024-02-28T11:06:30;15.38;;;13.10;;
13345;SDS011;6742;48.036;15.780;2024-02-28T11:08:58;15.98;;;13.23;;
13345;SDS011;6742;48.036;15.780;2024-02-28T11:11:29;16.65;;;12.95;;
13345;SDS011;6742;48.036;15.780;2024-02-28T11:13:58;15.43;;;12.77;;
13345;SDS011;6742;48.036;15.780;2024-02-28T11:16:28;15.88;;;12.95;;
13345;SDS011;6742;48.036;15.780;2024-02-28T11:18:56;14.70;;;12.77;;
13345;SDS011;6742;48.036;15.780;2024-02-28T11:21:24;15.75;;;12.95;;
13345;SDS011;6742;48.036;15.780;2024-02-28T11:23:52;14.23;;;12.73;;
13345;SDS011;6742;48.036;15.780;2024-02-28T11:26:23;14.00;;;12.18;;
13345;SDS011;6742;48.036;15.780;2024-02-28T11:28:51;15.10;;;12.38;;
13345;SDS011;6742;48.036;15.780;2024-02-28T11:31:18;13.35;;;11.90;;
13345;SDS011;6742;48.036;15.780;2024-02-28T11:33:46;14.50;;;12.90;;
13345;SDS011;6742;48.036;15.780;2024-02-28T11:36:13;15.73;;;12.50;;
13345;SDS011;6742;48.036;15.780;2024-02-28T11:38:40;15.23;;;12.73;;
13345;SDS011;6742;48.036;15.780;2024-02-28T11:41:07;14.55;;;11.70;;
13345;SDS011;6742;48.036;15.780;2024-02-28T11:43:34;13.93;;;12.32;;
13345;SDS011;6742;48.036;15.780;2024-02-28T11:46:02;12.85;;;11.55;;
13345;SDS011;6742;48.036;15.780;2024-02-28T11:48:34;14.27;;;12.40;;
13345;SDS011;6742;48.036;15.780;2024-02-28T11:51:03;15.18;;;12.35;;
13345;SDS011;6742;48.036;15.780;2024-02-28T11:53:30;15.38;;;12.25;;
13345;SDS011;6742;48.036;15.780;2024-02-28T11:55:57;13.90;;;12.38;;
13345;SDS011;6742;48.036;15.780;2024-02-28T11:58:24;16.98;;;11.93;;
13345;SDS011;6742;48.036;15.780;2024-02-28T12:00:53;13.40;;;12.00;;
13345;SDS011;6742;48.036;15.780;2024-02-28T12:03:21;15.07;;;12.38;;
13345;SDS011;6742;48.036;15.780;2024-02-28T12:05:48;13.18;;;11.63;;
13345;SDS011;6742;48.036;15.780;2024-02-28T12:08:19;12.77;;;11.43;;
13345;SDS011;6742;48.036;15.780;2024-02-28T12:10:46;13.20;;;11.80;;
13345;SDS011;6742;48.036;15.780;2024-02-28T12:13:16;13.98;;;12.48;;
13345;SDS011;6742;48.036;15.780;2024-02-28T12:15:45;13.77;;;12.00;;
13345;SDS011;6742;48.036;15.780;2024-02-28T12:18:14;14.40;;;12.48;;
13345;SDS011;6742;48.036;15.780;2024-02-28T12:20:41;13.52;;;11.73;;
13345;SDS011;6742;48.036;15.780;2024-02-28T12:23:12;14.63;;;12.20;;
13345;SDS011;6742;48.036;15.780;2024-02-28T12:25:40;12.68;;;11.38;;
13345;SDS011;6742;48.036;15.780;2024-02-28T12:28:07;13.63;;;12.13;;
13345;SDS011;6742;48.036;15.780;2024-02-28T12:30:39;11.90;;;10.63;;
13345;SDS011;6742;48.036;15.780;2024-02-28T12:33:07;14.95;;;12.15;;
13345;SDS011;6742;48.036;15.780;2024-02-28T12:35:34;12.40;;;11.05;;
13345;SDS011;6742;48.036;15.780;2024-02-28T12:38:02;12.35;;;10.73;;
13345;SDS011;6742;48.036;15.780;2024-02-28T12:40:29;12.27;;;10.35;;
13345;SDS011;6742;48.036;15.780;2024-02-28T12:42:57;13.85;;;11.50;;
13345;SDS011;6742;48.036;15.780;2024-02-28T12:45:24;15.68;;;12.13;;
13345;SDS011;6742;48.036;15.780;2024-02-28T12:47:51;12.38;;;11.07;;
13345;SDS011;6742;48.036;15.780;2024-02-28T12:50:21;13.00;;;11.52;;
13345;SDS011;6742;48.036;15.780;2024-02-28T12:52:49;13.02;;;11.27;;
13345;SDS011;6742;48.036;15.780;2024-02-28T12:55:18;13.27;;;11.43;;
13345;SDS011;6742;48.036;15.780;2024-02-28T12:57:46;12.10;;;10.70;;
13345;SDS011;6742;48.036;15.780;2024-02-28T13:00:15;13.50;;;11.43;;
13345;SDS011;6742;48.036;15.780;2024-02-28T13:02:42;13.23;;;11.43;;
13345;SDS011;6742;48.036;15.780;2024-02-28T13:05:11;12.60;;;11.30;;
13345;SDS011;6742;48.036;15.780;2024-02-28T13:07:39;13.38;;;11.23;;
13345;SDS011;6742;48.036;15.780;2024-02-28T13:10:06;14.20;;;12.57;;
13345;SDS011;6742;48.036;15.780;2024-02-28T13:12:34;15.02;;;11.50;;
13345;SDS011;6742;48.036;15.780;2024-02-28T13:15:01;13.88;;;11.73;;
13345;SDS011;6742;48.036;15.780;2024-02-28T13:17:29;15.32;;;12.68;;
13345;SDS011;6742;48.036;15.780;2024-02-28T13:19:56;17.83;;;12.98;;
13345;SDS011;6742;48.036;15.780;2024-02-28T13:22:24;13.70;;;11.90;;
13345;SDS011;6742;48.036;15.780;2024-02-28T13:24:51;14.95;;;12.20;;
13345;SDS011;6742;48.036;15.780;2024-02-28T13:27:19;15.20;;;11.88;;
13345;SDS011;6742;48.036;15.780;2024-02-28T13:29:46;13.07;;;11.68;;
13345;SDS011;6742;48.036;15.780;2024-02-28T13:32:13;13.27;;;11.88;;
13345;SDS011;6742;48.036;15.780;2024-02-28T13:34:41;13.45;;;11.48;;
13345;SDS011;6742;48.036;15.780;2024-02-28T13:37:08;15.07;;;12.43;;
13345;SDS011;6742;48.036;15.780;2024-02-28T13:39:35;13.60;;;10.90;;
13345;SDS011;6742;48.036;15.780;2024-02-28T13:42:02;15.10;;;12.02;;
13345;SDS011;6742;48.036;15.780;2024-02-28T13:44:31;14.73;;;12.02;;
13345;SDS011;6742;48.036;15.780;2024-02-28T13:46:59;13.77;;;11.23;;
13345;SDS011;6742;48.036;15.780;2024-02-28T13:49:26;14.52;;;12.15;;
13345;SDS011;6742;48.036;15.780;2024-02-28T13:51:54;12.98;;;11.50;;
13345;SDS011;6742;48.036;15.780;2024-02-28T13:54:21;13.82;;;11.27;;
13345;SDS011;6742;48.036;15.780;2024-02-28T13:56:48;14.27;;;11.90;;
13345;SDS011;6742;48.036;15.780;2024-02-28T13:59:15;13.80;;;10.85;;
13345;SDS011;6742;48.036;15.780;2024-02-28T14:01:42;13.13;;;11.43;;
13345;SDS011;6742;48.036;15.780;2024-02-28T14:04:10;12.48;;;11.20;;
13345;SDS011;6742;48.036;15.780;2024-02-28T14:06:37;13.82;;;12.18;;
13345;SDS011;6742;48.036;15.780;2024-02-28T14:09:06;14.63;;;12.00;;
13345;SDS011;6742;48.036;15.780;2024-02-28T14:11:34;13.75;;;11.85;;
13345;SDS011;6742;48.036;15.780;2024-02-28T14:14:04;13.40;;;12.00;;
13345;SDS011;6742;48.036;15.780;2024-02-28T14:16:31;14.05;;;12.45;;
13345;SDS011;6742;48.036;15.780;2024-02-28T14:18:58;14.15;;;11.88;;
13345;SDS011;6742;48.036;15.780;2024-02-28T14:21:26;15.60;;;12.80;;
13345;SDS011;6742;48.036;15.780;2024-02-28T14:23:53;15.18;;;12.35;;
13345;SDS011;6742;48.036;15.780;2024-02-28T14:26:21;15.60;;;12.50;;
13345;SDS011;6742;48.036;15.780;2024-02-28T14:28:49;13.63;;;12.00;;